createdAt,value
2017-03-12T00:00:10.413Z,0
2017-03-12T00:02:24.972Z,0
2017-03-12T00:03:10.460Z,0
2017-03-12T00:04:24.998Z,0
2017-03-12T00:05:10.509Z,0
2017-03-12T00:06:10.565Z,0
2017-03-12T00:07:10.162Z,0
2017-03-12T00:08:10.164Z,0
2017-03-12T00:09:10.568Z,0
2017-03-12T00:10:10.581Z,0
2017-03-12T00:11:10.596Z,0
2017-03-12T00:12:25.167Z,0
2017-03-12T00:13:25.155Z,0
2017-03-12T00:14:10.265Z,0
2017-03-12T00:16:10.689Z,0
2017-03-12T00:17:25.204Z,0
2017-03-12T00:18:10.333Z,0
2017-03-12T00:19:10.338Z,0
2017-03-12T00:20:09.977Z,0
2017-03-12T00:21:10.381Z,0
2017-03-12T00:22:10.381Z,0
2017-03-12T00:23:10.406Z,0
2017-03-12T00:24:10.789Z,0
2017-03-12T00:25:25.629Z,0
2017-03-12T00:27:10.869Z,0
2017-03-12T00:28:25.385Z,0
2017-03-12T00:29:25.393Z,0
2017-03-12T00:30:10.905Z,0
2017-03-12T00:31:10.926Z,0
2017-03-12T00:32:10.926Z,0
2017-03-12T00:34:10.959Z,0
2017-03-12T00:35:10.585Z,0
2017-03-12T00:37:11.008Z,0
2017-03-12T00:38:11.011Z,0
2017-03-12T00:39:11.041Z,0
2017-03-12T00:40:11.042Z,0
2017-03-12T00:41:11.058Z,0
2017-03-12T00:42:11.077Z,0
2017-03-12T00:43:11.096Z,0
2017-03-12T00:44:25.251Z,0
2017-03-12T00:45:11.122Z,0
2017-03-12T00:46:11.137Z,0
2017-03-12T00:47:11.158Z,0
2017-03-12T00:48:25.321Z,0
2017-03-12T00:49:10.829Z,0
2017-03-12T00:50:10.443Z,0
2017-03-12T00:51:11.221Z,0
2017-03-12T00:52:11.236Z,0
2017-03-12T00:53:11.256Z,0
2017-03-12T00:54:11.272Z,0
2017-03-12T00:55:11.322Z,0
2017-03-12T00:56:11.298Z,0
2017-03-12T00:57:11.325Z,0
2017-03-12T00:58:11.363Z,0
2017-03-12T00:59:11.356Z,0
2017-03-12T01:00:11.364Z,0
2017-03-12T01:01:11.395Z,0
2017-03-12T01:02:25.915Z,0
2017-03-12T01:04:11.423Z,0
2017-03-12T01:05:11.456Z,0
2017-03-12T01:06:11.451Z,0
2017-03-12T01:07:25.994Z,0
2017-03-12T01:08:11.487Z,0
2017-03-12T01:10:11.130Z,0
2017-03-12T01:11:11.549Z,0
2017-03-12T01:12:11.551Z,0
2017-03-12T01:13:11.594Z,0
2017-03-12T01:14:11.581Z,0
2017-03-12T01:15:11.591Z,0
2017-03-12T01:16:26.145Z,0
2017-03-12T01:17:11.649Z,0
2017-03-12T01:18:11.651Z,0
2017-03-12T01:19:11.691Z,0
2017-03-12T01:20:11.286Z,0
2017-03-12T01:21:11.688Z,0
2017-03-12T01:22:11.344Z,0
2017-03-12T01:24:11.358Z,0
2017-03-12T01:25:11.753Z,0
2017-03-12T01:26:11.771Z,0
2017-03-12T01:27:11.781Z,0
2017-03-12T01:28:11.795Z,0
2017-03-12T01:29:11.831Z,0
2017-03-12T01:30:11.819Z,0
2017-03-12T01:31:11.842Z,0
2017-03-12T01:32:26.381Z,0
2017-03-12T01:33:11.884Z,0
2017-03-12T01:34:11.897Z,0
2017-03-12T01:35:11.897Z,0
2017-03-12T01:36:26.058Z,0
2017-03-12T01:37:11.937Z,0
2017-03-12T01:38:11.951Z,0
2017-03-12T01:39:11.982Z,0
2017-03-12T01:40:11.986Z,0
2017-03-12T01:41:11.991Z,0
2017-03-12T01:42:12.013Z,0
2017-03-12T01:43:12.046Z,0
2017-03-12T01:44:11.656Z,0
2017-03-12T01:45:12.069Z,0
2017-03-12T01:46:12.081Z,0
2017-03-12T01:47:11.731Z,0
2017-03-12T01:48:26.644Z,0
2017-03-12T01:49:12.115Z,0
2017-03-12T01:50:12.154Z,0
2017-03-12T01:51:12.151Z,0
2017-03-12T01:52:12.174Z,0
2017-03-12T01:53:26.706Z,0
2017-03-12T01:54:11.827Z,0
2017-03-12T01:55:12.220Z,0
2017-03-12T01:56:26.771Z,0
2017-03-12T01:57:12.238Z,0
2017-03-12T01:58:12.253Z,0
2017-03-12T01:59:12.281Z,0
2017-03-12T02:00:12.290Z,0
2017-03-12T02:01:26.977Z,0
2017-03-12T02:02:11.954Z,0
2017-03-12T02:05:12.388Z,0
2017-03-12T02:06:12.373Z,0
2017-03-12T02:07:12.395Z,0
2017-03-12T02:08:12.044Z,0
2017-03-12T02:09:26.946Z,0
2017-03-12T02:10:26.977Z,0
2017-03-12T02:11:12.463Z,0
2017-03-12T02:12:12.469Z,0
2017-03-12T02:13:12.498Z,0
2017-03-12T02:14:12.512Z,0
2017-03-12T02:16:12.558Z,0
2017-03-12T02:17:12.601Z,0
2017-03-12T02:18:12.183Z,0
2017-03-12T02:19:27.101Z,0
2017-03-12T02:20:12.210Z,0
2017-03-12T02:21:27.146Z,0
2017-03-12T02:22:12.648Z,0
2017-03-12T02:23:12.645Z,0
2017-03-12T02:24:12.649Z,0
2017-03-12T02:26:12.295Z,0
2017-03-12T02:27:12.705Z,0
2017-03-12T02:28:12.344Z,0
2017-03-12T02:29:12.727Z,0
2017-03-12T02:30:12.761Z,0
2017-03-12T02:31:12.787Z,0
2017-03-12T02:32:12.778Z,0
2017-03-12T02:33:12.402Z,0
2017-03-12T02:34:12.415Z,0
2017-03-12T02:35:12.435Z,0
2017-03-12T02:36:12.072Z,0
2017-03-12T02:37:12.457Z,0
2017-03-12T02:38:12.114Z,0
2017-03-12T02:39:12.498Z,0
2017-03-12T02:40:12.511Z,0
2017-03-12T02:41:12.534Z,0
2017-03-12T02:42:27.061Z,0
2017-03-12T02:43:12.942Z,0
2017-03-12T02:44:12.585Z,0
2017-03-12T02:45:12.991Z,0
2017-03-12T02:46:12.601Z,0
2017-03-12T02:47:12.994Z,0
2017-03-12T02:49:13.030Z,0
2017-03-12T02:50:13.081Z,0
2017-03-12T02:51:27.617Z,0
2017-03-12T02:52:13.074Z,0
2017-03-12T02:53:12.699Z,0
2017-03-12T02:54:13.096Z,0
2017-03-12T02:55:27.642Z,0
2017-03-12T02:56:13.131Z,0
2017-03-12T02:57:13.146Z,0
2017-03-12T02:58:12.788Z,0
2017-03-12T03:00:13.192Z,0
2017-03-12T03:01:13.220Z,0
2017-03-12T03:02:12.458Z,0
2017-03-12T03:03:13.254Z,0
2017-03-12T03:04:13.267Z,0
2017-03-12T03:05:13.266Z,0
2017-03-12T03:06:13.279Z,0
2017-03-12T03:07:27.827Z,0
2017-03-12T03:08:12.924Z,0
2017-03-12T03:09:27.864Z,0
2017-03-12T03:10:12.967Z,0
2017-03-12T03:11:27.882Z,0
2017-03-12T03:12:13.389Z,0
2017-03-12T03:13:13.403Z,0
2017-03-12T03:14:13.409Z,0
2017-03-12T03:15:27.940Z,0
2017-03-12T03:16:13.430Z,0
2017-03-12T03:17:13.459Z,0
2017-03-12T03:18:13.075Z,0
2017-03-12T03:20:13.494Z,0
2017-03-12T03:21:28.039Z,0
2017-03-12T03:22:13.154Z,0
2017-03-12T03:23:28.065Z,0
2017-03-12T03:24:28.079Z,0
2017-03-12T03:25:13.569Z,0
2017-03-12T03:26:28.107Z,0
2017-03-12T03:27:28.122Z,0
2017-03-12T03:28:13.235Z,0
2017-03-12T03:29:13.243Z,0
2017-03-12T03:30:13.650Z,0
2017-03-12T03:31:13.657Z,0
2017-03-12T03:33:13.690Z,0
2017-03-12T03:34:28.220Z,0
2017-03-12T03:35:28.250Z,0
2017-03-12T03:36:13.739Z,0
2017-03-12T03:37:13.743Z,0
2017-03-12T03:38:13.768Z,0
2017-03-12T03:39:42.836Z,0
2017-03-12T03:40:13.800Z,0
2017-03-12T03:41:13.806Z,0
2017-03-12T03:42:13.820Z,0
2017-03-12T03:43:13.829Z,0
2017-03-12T03:44:13.848Z,0
2017-03-12T03:45:13.857Z,0
2017-03-12T03:46:13.906Z,0
2017-03-12T03:47:13.896Z,0
2017-03-12T03:48:13.934Z,0
2017-03-12T03:49:13.927Z,0
2017-03-12T03:50:13.550Z,0
2017-03-12T03:51:13.962Z,0
2017-03-12T03:52:13.969Z,0
2017-03-12T03:53:13.986Z,0
2017-03-12T03:54:28.555Z,0
2017-03-12T03:55:14.015Z,0
2017-03-12T03:56:13.639Z,0
2017-03-12T03:57:14.055Z,0
2017-03-12T03:58:14.065Z,0
2017-03-12T03:59:28.593Z,0
2017-03-12T04:00:28.231Z,0
2017-03-12T04:01:28.623Z,0
2017-03-12T04:02:28.653Z,0
2017-03-12T04:03:14.131Z,0
2017-03-12T04:04:14.142Z,0
2017-03-12T04:06:14.171Z,0
2017-03-12T04:07:14.180Z,0
2017-03-12T04:08:14.201Z,0
2017-03-12T04:09:28.748Z,0
2017-03-12T04:11:14.243Z,0
2017-03-12T04:12:14.277Z,0
2017-03-12T04:13:14.288Z,0
2017-03-12T04:14:14.318Z,0
2017-03-12T04:15:28.831Z,0
2017-03-12T04:16:14.338Z,0
2017-03-12T04:18:14.346Z,0
2017-03-12T04:19:14.371Z,0
2017-03-12T04:20:14.399Z,0
2017-03-12T04:21:14.392Z,0
2017-03-12T04:22:14.413Z,0
2017-03-12T04:23:14.458Z,0
2017-03-12T04:25:14.452Z,0
2017-03-12T04:26:28.993Z,0
2017-03-12T04:27:14.480Z,0
2017-03-12T04:28:14.501Z,0
2017-03-12T04:29:14.506Z,0
2017-03-12T04:30:14.527Z,0
2017-03-12T04:31:29.081Z,0
2017-03-12T04:32:29.079Z,0
2017-03-12T04:34:14.461Z,0
2017-03-12T04:35:14.609Z,0
2017-03-12T04:36:14.634Z,0
2017-03-12T04:37:14.663Z,0
2017-03-12T04:38:14.650Z,0
2017-03-12T04:41:14.303Z,0
2017-03-12T04:42:29.222Z,0
2017-03-12T04:43:14.737Z,0
2017-03-12T04:44:14.343Z,0
2017-03-12T04:45:29.266Z,0
2017-03-12T04:46:14.753Z,0
2017-03-12T04:47:14.389Z,0
2017-03-12T04:48:29.306Z,0
2017-03-12T04:49:14.433Z,0
2017-03-12T04:50:14.429Z,0
2017-03-12T04:51:14.455Z,4
2017-03-12T04:52:14.463Z,4
2017-03-12T04:54:14.493Z,4
2017-03-12T04:55:14.885Z,4
2017-03-12T04:56:14.913Z,4
2017-03-12T04:57:29.450Z,4
2017-03-12T04:58:29.466Z,4
2017-03-12T04:59:14.945Z,8
2017-03-12T05:00:14.966Z,4
2017-03-12T05:01:14.975Z,8
2017-03-12T05:02:29.511Z,12
2017-03-12T05:03:15.023Z,12
2017-03-12T05:04:29.541Z,16
2017-03-12T05:05:15.033Z,20
2017-03-12T05:07:15.058Z,24
2017-03-12T05:08:15.085Z,32
2017-03-12T05:09:15.104Z,40
2017-03-12T05:10:15.100Z,44
2017-03-12T05:11:15.118Z,52
2017-03-12T05:12:15.139Z,64
2017-03-12T05:13:15.147Z,72
2017-03-12T05:14:29.706Z,84
2017-03-12T05:15:15.175Z,96
2017-03-12T05:16:29.718Z,112
2017-03-12T05:17:15.197Z,124
2017-03-12T05:18:14.835Z,140
2017-03-12T05:19:14.922Z,160
2017-03-12T05:21:14.875Z,200
2017-03-12T05:23:15.308Z,248
2017-03-12T05:25:15.350Z,304
2017-03-12T05:26:14.960Z,328
2017-03-12T05:27:15.368Z,364
2017-03-12T05:28:15.374Z,396
2017-03-12T05:29:29.905Z,444
2017-03-12T05:30:15.389Z,468
2017-03-12T05:31:15.419Z,512
2017-03-12T05:32:15.074Z,560
2017-03-12T05:33:15.478Z,604
2017-03-12T05:34:29.980Z,672
2017-03-12T05:35:15.495Z,708
2017-03-12T05:36:15.119Z,764
2017-03-12T05:37:15.118Z,820
2017-03-12T05:38:15.121Z,876
2017-03-12T05:39:15.136Z,944
2017-03-12T05:41:15.552Z,1076
2017-03-12T05:42:15.578Z,1144
2017-03-12T05:43:15.577Z,1216
2017-03-12T05:44:15.660Z,1284
2017-03-12T05:45:15.649Z,1364
2017-03-12T05:46:15.246Z,1448
2017-03-12T05:47:15.666Z,1536
2017-03-12T05:48:15.650Z,1628
2017-03-12T05:49:30.193Z,1748
2017-03-12T05:51:15.699Z,1916
2017-03-12T05:52:15.715Z,2016
2017-03-12T05:53:15.342Z,2108
2017-03-12T05:54:15.735Z,2208
2017-03-12T05:55:15.771Z,2320
2017-03-12T05:57:15.776Z,3848
2017-03-12T05:58:16.107Z,4924
2017-03-12T05:59:15.809Z,6024
2017-03-12T06:00:16.122Z,4676
2017-03-12T06:01:29.982Z,4136
2017-03-12T06:02:15.481Z,5096
2017-03-12T06:03:15.868Z,6148
2017-03-12T06:04:15.515Z,6940
2017-03-12T06:05:15.915Z,7340
2017-03-12T06:06:15.918Z,7088
2017-03-12T06:07:15.547Z,6456
2017-03-12T06:09:15.969Z,8036
2017-03-12T06:10:15.585Z,11360
2017-03-12T06:11:16.000Z,12576
2017-03-12T06:12:16.011Z,14368
2017-03-12T06:13:16.042Z,16608
2017-03-12T06:14:16.040Z,17888
2017-03-12T06:15:16.053Z,19840
2017-03-12T06:16:16.074Z,22208
2017-03-12T06:17:30.614Z,23168
2017-03-12T06:18:15.726Z,24096
2017-03-12T06:19:16.131Z,23904
2017-03-12T06:20:30.283Z,24928
2017-03-12T06:21:30.701Z,27072
2017-03-12T06:22:16.191Z,27136
2017-03-12T06:23:16.230Z,26176
2017-03-12T06:24:16.252Z,27040
2017-03-12T06:25:16.246Z,28992
2017-03-12T06:26:16.259Z,30464
2017-03-12T06:27:16.305Z,30848
2017-03-12T06:28:16.304Z,31520
2017-03-12T06:29:30.860Z,31968
2017-03-12T06:30:16.358Z,32896
2017-03-12T06:31:15.981Z,31840
2017-03-12T06:32:16.012Z,32864
2017-03-12T06:33:30.943Z,32224
2017-03-12T06:34:16.429Z,31808
2017-03-12T06:35:16.450Z,32128
2017-03-12T06:37:31.023Z,31936
2017-03-12T06:38:16.149Z,31648
2017-03-12T06:39:16.165Z,33152
2017-03-12T06:40:16.569Z,34688
2017-03-12T06:41:16.626Z,35264
2017-03-12T06:42:16.620Z,35424
2017-03-12T06:43:16.647Z,36320
2017-03-12T06:44:16.676Z,36832
2017-03-12T06:45:16.716Z,38624
2017-03-12T06:46:16.723Z,38944
2017-03-12T06:47:16.737Z,38656
2017-03-12T06:49:31.312Z,40448
2017-03-12T06:50:31.357Z,40000
2017-03-12T06:51:31.364Z,39200
2017-03-12T06:52:16.873Z,38848
2017-03-12T06:53:16.873Z,39520
2017-03-12T06:54:16.913Z,39392
2017-03-12T06:55:31.084Z,39776
2017-03-12T06:56:16.957Z,38432
2017-03-12T06:57:16.982Z,36224
2017-03-12T06:58:17.021Z,35360
2017-03-12T06:59:16.649Z,34240
2017-03-12T07:00:17.084Z,17408
2017-03-12T07:01:17.078Z,12116
2017-03-12T07:02:16.764Z,9320
2017-03-12T07:03:17.139Z,7600
2017-03-12T07:04:31.686Z,9188
2017-03-12T07:05:17.179Z,7076
2017-03-12T07:06:16.830Z,5828
2017-03-12T07:08:31.782Z,4968
2017-03-12T07:09:17.326Z,4860
2017-03-12T07:10:16.923Z,4964
2017-03-12T07:11:31.848Z,4428
2017-03-12T07:12:17.362Z,4456
2017-03-12T07:13:17.361Z,4760
2017-03-12T07:14:17.388Z,4096
2017-03-12T07:15:17.425Z,4648
2017-03-12T07:16:17.427Z,4888
2017-03-12T07:17:17.452Z,4864
2017-03-12T07:18:17.484Z,4396
2017-03-12T07:19:17.496Z,3868
2017-03-12T07:20:31.679Z,3952
2017-03-12T07:21:17.154Z,3608
2017-03-12T07:22:17.181Z,3920
2017-03-12T07:23:16.803Z,3652
2017-03-12T07:24:17.208Z,3180
2017-03-12T07:25:17.614Z,3400
2017-03-12T07:26:17.640Z,3476
2017-03-12T07:27:17.660Z,3300
2017-03-12T07:28:17.670Z,3452
2017-03-12T07:29:17.694Z,3332
2017-03-12T07:30:17.714Z,3168
2017-03-12T07:31:17.733Z,3396
2017-03-12T07:32:17.751Z,3508
2017-03-12T07:33:17.399Z,3380
2017-03-12T07:34:17.401Z,3136
2017-03-12T07:35:17.417Z,3052
2017-03-12T07:36:31.971Z,3388
2017-03-12T07:37:17.468Z,3048
2017-03-12T07:38:32.393Z,3028
2017-03-12T07:39:17.532Z,3376
2017-03-12T07:40:32.428Z,3332
2017-03-12T07:41:17.931Z,3332
2017-03-12T07:42:17.966Z,4324
2017-03-12T07:43:32.503Z,3672
2017-03-12T07:44:17.991Z,3744
2017-03-12T07:45:32.518Z,3832
2017-03-12T07:46:32.535Z,3692
2017-03-12T07:47:18.035Z,3216
2017-03-12T07:48:18.060Z,3768
2017-03-12T07:49:18.069Z,3780
2017-03-12T07:50:32.636Z,3412
2017-03-12T07:51:18.117Z,3504
2017-03-12T07:53:32.673Z,3700
2017-03-12T07:54:18.169Z,3520
2017-03-12T07:55:18.173Z,3436
2017-03-12T07:56:32.718Z,3252
2017-03-12T07:57:18.214Z,3120
2017-03-12T07:59:18.268Z,3764
2017-03-12T08:00:32.806Z,3760
2017-03-12T08:01:18.285Z,3948
2017-03-12T08:02:18.301Z,3756
2017-03-12T08:03:18.313Z,3868
2017-03-12T08:04:18.346Z,4052
2017-03-12T08:05:18.351Z,4604
2017-03-12T08:06:18.402Z,4236
2017-03-12T08:07:18.396Z,4232
2017-03-12T08:08:32.935Z,4304
2017-03-12T08:09:18.427Z,4220
2017-03-12T08:10:32.975Z,4288
2017-03-12T08:11:18.464Z,4816
2017-03-12T08:12:18.474Z,5068
2017-03-12T08:14:18.521Z,5288
2017-03-12T08:15:18.143Z,5356
2017-03-12T08:16:18.557Z,5256
2017-03-12T08:17:18.571Z,5040
2017-03-12T08:18:18.589Z,4924
2017-03-12T08:19:18.611Z,4876
2017-03-12T08:20:33.154Z,5028
2017-03-12T08:21:18.253Z,4812
2017-03-12T08:23:18.286Z,4780
2017-03-12T08:24:33.247Z,4988
2017-03-12T08:25:18.346Z,5460
2017-03-12T08:26:18.745Z,4908
2017-03-12T08:27:33.274Z,4704
2017-03-12T08:28:18.791Z,5056
2017-03-12T08:30:18.437Z,4864
2017-03-12T08:31:18.821Z,4676
2017-03-12T08:32:18.446Z,5268
2017-03-12T08:33:18.871Z,5372
2017-03-12T08:35:18.509Z,5160
2017-03-12T08:36:18.519Z,5088
2017-03-12T08:37:18.148Z,4776
2017-03-12T08:38:18.939Z,5004
2017-03-12T08:39:33.493Z,4712
2017-03-12T08:40:18.987Z,4636
2017-03-12T08:41:18.603Z,4804
2017-03-12T08:43:18.660Z,5080
2017-03-12T08:44:18.668Z,5400
2017-03-12T08:45:18.684Z,6288
2017-03-12T08:46:18.710Z,6964
2017-03-12T08:47:18.728Z,7156
2017-03-12T08:48:18.737Z,7148
2017-03-12T08:49:18.752Z,6788
2017-03-12T08:50:33.696Z,6100
2017-03-12T08:51:19.194Z,6116
2017-03-12T08:52:18.810Z,5684
2017-03-12T08:53:18.823Z,5568
2017-03-12T08:54:19.230Z,5572
2017-03-12T08:55:19.247Z,5444
2017-03-12T08:56:19.229Z,5520
2017-03-12T08:58:19.313Z,5404
2017-03-12T08:59:19.318Z,5104
2017-03-12T09:01:19.391Z,4972
2017-03-12T09:02:19.421Z,5308
2017-03-12T09:03:19.430Z,5260
2017-03-12T09:04:19.442Z,5044
2017-03-12T09:05:19.460Z,5484
2017-03-12T09:06:19.445Z,5752
2017-03-12T09:07:19.465Z,5928
2017-03-12T09:08:19.522Z,5924
2017-03-12T09:10:19.524Z,6508
2017-03-12T09:11:34.081Z,6324
2017-03-12T09:12:19.568Z,6312
2017-03-12T09:13:19.597Z,6240
2017-03-12T09:14:34.125Z,6916
2017-03-12T09:15:19.611Z,6904
2017-03-12T09:16:19.653Z,6716
2017-03-12T09:17:19.648Z,7152
2017-03-12T09:18:19.675Z,7680
2017-03-12T09:20:19.719Z,8092
2017-03-12T09:21:19.723Z,7888
2017-03-12T09:22:19.747Z,8060
2017-03-12T09:23:19.764Z,7488
2017-03-12T09:24:19.389Z,7676
2017-03-12T09:25:19.807Z,7616
2017-03-12T09:26:19.831Z,7268
2017-03-12T09:28:19.862Z,6340
2017-03-12T09:29:19.878Z,6256
2017-03-12T09:30:19.529Z,6240
2017-03-12T09:31:19.920Z,5836
2017-03-12T09:32:34.452Z,6260
2017-03-12T09:33:19.946Z,6244
2017-03-12T09:34:19.964Z,6524
2017-03-12T09:35:19.982Z,7820
2017-03-12T09:36:20.000Z,7224
2017-03-12T09:37:20.019Z,7504
2017-03-12T09:38:20.039Z,8388
2017-03-12T09:39:20.350Z,9112
2017-03-12T09:40:34.611Z,8092
2017-03-12T09:41:20.099Z,8260
2017-03-12T09:42:20.111Z,8628
2017-03-12T09:43:34.659Z,8900
2017-03-12T09:44:20.154Z,9252
2017-03-12T09:45:20.166Z,9256
2017-03-12T09:46:19.819Z,9236
2017-03-12T09:47:20.207Z,9564
2017-03-12T09:48:20.229Z,10520
2017-03-12T09:49:19.853Z,11852
2017-03-12T09:50:19.876Z,10988
2017-03-12T09:51:20.292Z,10396
2017-03-12T09:53:19.947Z,8532
2017-03-12T09:54:20.351Z,7900
2017-03-12T09:55:20.358Z,8220
2017-03-12T09:56:20.381Z,8404
2017-03-12T09:57:20.424Z,9012
2017-03-12T09:58:20.417Z,9716
2017-03-12T09:59:34.966Z,8528
2017-03-12T10:00:20.498Z,7796
2017-03-12T10:01:20.471Z,7492
2017-03-12T10:02:20.100Z,6812
2017-03-12T10:03:20.509Z,6428
2017-03-12T10:04:20.531Z,5424
2017-03-12T10:05:20.173Z,5064
2017-03-12T10:06:20.599Z,5164
2017-03-12T10:07:35.145Z,5668
2017-03-12T10:08:20.617Z,6480
2017-03-12T10:09:20.246Z,6684
2017-03-12T10:10:20.260Z,6980
2017-03-12T10:11:20.699Z,8100
2017-03-12T10:12:20.688Z,8956
2017-03-12T10:13:20.703Z,8824
2017-03-12T10:14:35.262Z,8268
2017-03-12T10:15:20.376Z,8300
2017-03-12T10:16:20.372Z,8980
2017-03-12T10:17:20.819Z,9012
2017-03-12T10:18:35.327Z,8748
2017-03-12T10:21:20.853Z,8712
2017-03-12T10:23:35.418Z,8496
2017-03-12T10:24:20.937Z,8184
2017-03-12T10:25:20.950Z,8900
2017-03-12T10:26:20.969Z,7396
2017-03-12T10:27:20.989Z,6452
2017-03-12T10:28:35.144Z,6008
2017-03-12T10:30:21.044Z,6672
2017-03-12T10:31:35.575Z,6996
2017-03-12T10:32:21.106Z,6564
2017-03-12T10:33:21.092Z,6348
2017-03-12T10:34:35.628Z,7600
2017-03-12T10:35:21.131Z,7972
2017-03-12T10:36:35.676Z,7052
2017-03-12T10:37:21.181Z,7164
2017-03-12T10:38:21.214Z,5720
2017-03-12T10:39:21.199Z,5760
2017-03-12T10:40:20.450Z,6312
2017-03-12T10:41:21.239Z,6532
2017-03-12T10:42:21.258Z,6656
2017-03-12T10:43:21.282Z,6144
2017-03-12T10:44:21.294Z,5744
2017-03-12T10:45:21.317Z,6012
2017-03-12T10:46:35.869Z,5768
2017-03-12T10:47:21.364Z,5952
2017-03-12T10:48:21.387Z,5856
2017-03-12T10:49:21.410Z,6436
2017-03-12T10:50:21.459Z,7160
2017-03-12T10:51:21.050Z,9224
2017-03-12T10:52:35.982Z,9800
2017-03-12T10:53:21.081Z,8360
2017-03-12T10:54:21.491Z,7236
2017-03-12T10:55:21.519Z,7464
2017-03-12T10:56:36.054Z,8756
2017-03-12T10:57:21.551Z,8948
2017-03-12T10:58:21.570Z,8500
2017-03-12T10:59:21.899Z,8448
2017-03-12T11:00:21.609Z,6844
2017-03-12T11:01:21.625Z,6728
2017-03-12T11:02:36.174Z,7952
2017-03-12T11:03:21.684Z,8168
2017-03-12T11:04:21.694Z,8552
2017-03-12T11:05:36.238Z,8644
2017-03-12T11:06:36.249Z,7844
2017-03-12T11:07:21.745Z,7324
2017-03-12T11:08:36.302Z,8000
2017-03-12T11:09:21.808Z,7860
2017-03-12T11:11:21.828Z,6928
2017-03-12T11:12:21.857Z,7280
2017-03-12T11:13:21.863Z,8328
2017-03-12T11:14:21.900Z,7936
2017-03-12T11:15:21.916Z,6008
2017-03-12T11:16:21.917Z,7148
2017-03-12T11:17:21.568Z,8032
2017-03-12T11:18:36.495Z,8492
2017-03-12T11:19:36.509Z,7840
2017-03-12T11:20:36.526Z,8584
2017-03-12T11:21:22.071Z,7596
2017-03-12T11:23:22.065Z,8892
2017-03-12T11:24:36.216Z,7528
2017-03-12T11:25:36.234Z,8608
2017-03-12T11:26:22.146Z,8320
2017-03-12T11:27:22.137Z,8748
2017-03-12T11:28:21.768Z,7928
2017-03-12T11:29:21.821Z,8084
2017-03-12T11:30:21.816Z,7884
2017-03-12T11:31:22.211Z,6508
2017-03-12T11:32:22.259Z,7552
2017-03-12T11:33:22.277Z,8640
2017-03-12T11:34:36.797Z,8524
2017-03-12T11:35:22.313Z,8608
2017-03-12T11:36:22.318Z,8528
2017-03-12T11:37:21.941Z,8184
2017-03-12T11:38:22.366Z,7744
2017-03-12T11:39:36.515Z,7584
2017-03-12T11:40:22.412Z,7228
2017-03-12T11:41:22.029Z,7616
2017-03-12T11:42:22.447Z,7688
2017-03-12T11:43:22.473Z,7656
2017-03-12T11:44:22.480Z,8000
2017-03-12T11:46:22.505Z,8740
2017-03-12T11:47:22.539Z,8908
2017-03-12T11:48:22.556Z,7040
2017-03-12T11:49:37.094Z,5536
2017-03-12T11:50:22.585Z,5880
2017-03-12T11:51:22.616Z,6092
2017-03-12T11:52:22.636Z,5600
2017-03-12T11:53:22.692Z,5044
2017-03-12T11:54:22.666Z,4800
2017-03-12T11:55:22.689Z,6772
2017-03-12T11:56:37.231Z,6096
2017-03-12T11:57:22.775Z,6760
2017-03-12T11:58:22.359Z,5892
2017-03-12T11:59:22.764Z,7116
2017-03-12T12:00:22.821Z,5752
2017-03-12T12:01:22.805Z,5452
2017-03-12T12:03:22.871Z,5504
2017-03-12T12:04:37.391Z,5588
2017-03-12T12:05:22.897Z,4852
2017-03-12T12:06:22.509Z,5524
2017-03-12T12:07:22.916Z,5772
2017-03-12T12:08:22.563Z,5600
2017-03-12T12:09:22.965Z,6184
2017-03-12T12:10:22.629Z,6308
2017-03-12T12:11:23.004Z,6252
2017-03-12T12:12:37.541Z,6628
2017-03-12T12:13:23.037Z,7348
2017-03-12T12:14:23.053Z,7472
2017-03-12T12:15:23.070Z,7716
2017-03-12T12:16:22.703Z,7648
2017-03-12T12:17:23.109Z,7596
2017-03-12T12:18:23.128Z,6620
2017-03-12T12:19:23.147Z,7684
2017-03-12T12:20:22.782Z,7572
2017-03-12T12:21:37.717Z,7088
2017-03-12T12:22:23.204Z,7008
2017-03-12T12:23:22.847Z,6916
2017-03-12T12:24:23.245Z,6088
2017-03-12T12:25:37.793Z,5252
2017-03-12T12:26:23.296Z,5248
2017-03-12T12:27:23.313Z,5996
2017-03-12T12:28:23.324Z,6000
2017-03-12T12:29:23.345Z,5544
2017-03-12T12:30:23.376Z,5588
2017-03-12T12:31:23.394Z,5356
2017-03-12T12:32:23.452Z,5968
2017-03-12T12:33:23.422Z,6124
2017-03-12T12:34:23.447Z,6468
2017-03-12T12:35:23.456Z,6560
2017-03-12T12:36:23.491Z,6604
2017-03-12T12:37:38.039Z,6348
2017-03-12T12:38:23.517Z,6232
2017-03-12T12:39:23.539Z,6480
2017-03-12T12:40:38.091Z,6772
2017-03-12T12:41:23.575Z,6528
2017-03-12T12:42:23.607Z,5704
2017-03-12T12:43:23.622Z,5196
2017-03-12T12:44:23.252Z,5296
2017-03-12T12:45:23.670Z,5244
2017-03-12T12:46:23.289Z,5408
2017-03-12T12:47:23.307Z,4636
2017-03-12T12:49:23.731Z,4244
2017-03-12T12:50:23.761Z,4748
2017-03-12T12:51:38.298Z,6208
2017-03-12T12:52:23.788Z,6220
2017-03-12T12:53:38.331Z,5656
2017-03-12T12:54:23.856Z,5404
2017-03-12T12:55:23.860Z,5184
2017-03-12T12:57:23.886Z,5784
2017-03-12T12:59:23.929Z,5852
2017-03-12T13:00:23.965Z,5440
2017-03-12T13:01:38.487Z,5300
2017-03-12T13:02:24.008Z,5448
2017-03-12T13:03:23.615Z,5292
2017-03-12T13:04:23.637Z,5784
2017-03-12T13:05:23.652Z,5624
2017-03-12T13:06:24.083Z,5676
2017-03-12T13:07:24.080Z,5824
2017-03-12T13:08:24.121Z,5744
2017-03-12T13:09:38.669Z,5584
2017-03-12T13:10:24.143Z,5312
2017-03-12T13:11:38.682Z,5628
2017-03-12T13:12:23.789Z,5628
2017-03-12T13:13:24.193Z,5820
2017-03-12T13:14:23.836Z,5400
2017-03-12T13:15:24.240Z,4968
2017-03-12T13:16:24.252Z,4600
2017-03-12T13:17:24.269Z,4608
2017-03-12T13:18:23.910Z,5304
2017-03-12T13:19:24.341Z,5912
2017-03-12T13:20:23.948Z,6160
2017-03-12T13:21:23.965Z,5568
2017-03-12T13:22:24.407Z,6504
2017-03-12T13:23:24.007Z,6540
2017-03-12T13:24:53.472Z,6072
2017-03-12T13:25:24.425Z,5960
2017-03-12T13:26:24.455Z,4844
2017-03-12T13:27:24.469Z,4588
2017-03-12T13:28:24.517Z,4880
2017-03-12T13:29:39.028Z,5312
2017-03-12T13:30:24.533Z,5660
2017-03-12T13:31:38.683Z,6176
2017-03-12T13:32:24.554Z,6024
2017-03-12T13:33:24.579Z,6000
2017-03-12T13:34:24.602Z,6596
2017-03-12T13:35:24.623Z,6544
2017-03-12T13:36:39.171Z,5832
2017-03-12T13:37:24.659Z,6284
2017-03-12T13:38:24.687Z,6532
2017-03-12T13:39:24.698Z,6708
2017-03-12T13:40:24.725Z,6752
2017-03-12T13:41:24.732Z,6624
2017-03-12T13:42:24.754Z,5692
2017-03-12T13:43:24.831Z,5108
2017-03-12T13:44:39.325Z,4600
2017-03-12T13:45:24.812Z,4684
2017-03-12T13:46:24.869Z,5240
2017-03-12T13:47:39.389Z,4748
2017-03-12T13:48:24.878Z,4352
2017-03-12T13:49:24.512Z,4532
2017-03-12T13:50:39.450Z,5848
2017-03-12T13:51:24.929Z,6044
2017-03-12T13:52:24.946Z,6152
2017-03-12T13:53:24.964Z,5916
2017-03-12T13:54:25.022Z,5304
2017-03-12T13:55:25.031Z,5580
2017-03-12T13:56:39.555Z,5772
2017-03-12T13:57:25.041Z,6044
2017-03-12T13:58:25.071Z,5144
2017-03-12T13:59:25.097Z,4376
2017-03-12T14:00:39.638Z,4108
2017-03-12T14:01:25.330Z,4512
2017-03-12T14:02:25.146Z,4068
2017-03-12T14:03:25.188Z,3936
2017-03-12T14:04:25.182Z,3932
2017-03-12T14:05:25.200Z,4456
2017-03-12T14:06:25.227Z,3832
2017-03-12T14:08:25.280Z,3484
2017-03-12T14:09:25.277Z,3468
2017-03-12T14:10:25.315Z,3328
2017-03-12T14:11:24.938Z,3368
2017-03-12T14:12:39.862Z,3376
2017-03-12T14:13:25.366Z,3420
2017-03-12T14:14:25.371Z,3668
2017-03-12T14:15:25.396Z,3856
2017-03-12T14:16:25.025Z,4040
2017-03-12T14:17:25.446Z,4148
2017-03-12T14:18:39.593Z,4736
2017-03-12T14:19:25.492Z,4924
2017-03-12T14:20:25.493Z,5176
2017-03-12T14:21:25.532Z,4968
2017-03-12T14:22:25.149Z,5604
2017-03-12T14:23:25.559Z,5080
2017-03-12T14:24:40.103Z,4716
2017-03-12T14:25:25.594Z,4564
2017-03-12T14:26:25.609Z,4964
2017-03-12T14:27:25.646Z,5896
2017-03-12T14:28:40.169Z,5540
2017-03-12T14:29:25.667Z,5608
2017-03-12T14:30:25.705Z,4016
2017-03-12T14:31:25.718Z,3776
2017-03-12T14:32:25.723Z,3820
2017-03-12T14:33:25.745Z,4052
2017-03-12T14:34:25.787Z,4304
2017-03-12T14:36:25.800Z,6516
2017-03-12T14:37:25.822Z,6352
2017-03-12T14:38:25.869Z,5708
2017-03-12T14:39:25.856Z,4872
2017-03-12T14:40:25.878Z,4980
2017-03-12T14:41:25.897Z,5864
2017-03-12T14:42:25.925Z,5900
2017-03-12T14:43:25.933Z,5760
2017-03-12T14:44:40.476Z,6320
2017-03-12T14:45:25.968Z,6084
2017-03-12T14:48:26.025Z,6168
2017-03-12T14:49:26.055Z,6112